Historyczne dane pomiarowe

Dodano dane terminowe – wersja testowa.

Dane z okresu 1951-2019

Wersja bazy: 1.34 [2019-03-16, lista zmian], aktualizacja planowana na 2019-04-15

Dane meteo z obszaru Polski uzyskane na podstawie danych udostępnionych przez Instytut Meteorologii i Gospodarki Wodnej – Państwowy Instytut Badawczy.

 

Wybierz Datę:    

       

TemperaturaWilgotnośćWiatrCiśnienieOpadyŚniegCzas trwania zjawisk
 Stacja t tx tn tng RH VA  wxwx mslp ppp RRR   cm mm wxwxwxwxwxwxwx
1997-10-11 10.1 14.4 7.0- 93.8- 7.3 3.0---- 0.9------------
1997-10-12 8.9 11.6 7.0- 88.5- 8.0 1.0---- 3.0------------
1997-10-13 7.1 9.5 5.9- 81.0- 7.3 1.3---- 0.5------------
1997-10-14 4.6 10.1 -0.2- 91.3- 7.7 1.0---- 3.5------------
1997-10-15 2.6 7.5 -0.7- 89.3- 4.3 1.7---- 0.7------------
1997-10-16 2.1 6.1 -1.7- 93.0- 7.3 2.0---- 3.0------------
1997-10-17 2.3 8.1 -1.2- 91.5- 3.3 1.0---- 0.0------------
1997-10-18 1.7 11.1 -4.2- 87.5- 0.7 1.3---- 0.0------------
1997-10-19 6.3 15.0 -0.7- 83.5- 5.7 2.3---- 0.0------------
1997-10-20 6.2 17.0 -0.2- 86.5- 1.0 1.3---- 0.2------------
1997-10-21 2.4 6.1 -0.7- 84.8- 5.0 1.7---- 0.0------------
1997-10-22 -0.2 7.1 -5.7- 66.8- 5.0 1.3---- 0.0------------
1997-10-23 0.4 10.1 -5.2- 92.0- 0.0 0.7---- 0.0------------
1997-10-24 2.3 7.1 -2.6- 88.3- 4.7 2.7---- 1.0------------
1997-10-25 1.6 5.3 -1.8- 92.5- 6.7 2.0---- 3.8------------
1997-10-26 -1.2 3.1 -3.2- 98.0- 3.3 2.3---- 8.0-- 1---------
1997-10-27 -2.3 0.6 -5.7- 96.0- 8.0 1.7---- 1.0-- 18---------
1997-10-28 -2.1 2.1 -6.2- 99.5- 7.7 1.3---- 0.0-- 13---------
1997-10-29 -2.4 4.3 -8.6- 94.0- 4.7 1.7---- 0.0-- 8---------
1997-10-30 2.7 5.1 0.3- 93.5- 8.0 1.0---- 0.0------------
1997-10-31 2.2 4.1 0.8- 91.0- 8.0 0.7---- 0.0------------
1997-11-01 1.1 9.1 -3.2- 90.5- 1.3 1.7---- 0.0------------
1997-11-02 1.4 10.1 -4.2- 86.0- 3.0 0.3---- 0.0------------
1997-11-03 3.7 9.1 -1.2- 71.0- 7.3 2.7---- 0.6------------
1997-11-04 -1.1 3.1 -3.1- 85.3- 2.3 1.7---- 0.0------------
1997-11-05 -0.4 8.7 -8.2- 84.8- 2.3 2.0---- 0.0------------
1997-11-06 9.4 13.7 1.8- 72.3- 6.3 6.0---- 0.0------------
1997-11-07 14.7 18.5 10.1- 63.3- 5.3 3.7---- 0.0------------
1997-11-08 15.8 19.0 14.0- 70.5- 7.0 2.3---- 0.0------------
1997-11-09 11.9 18.2 8.1- 83.3- 6.7 1.0---- 0.1------------
208.3 ms

 

Źródłem pochodzenia danych jest Instytut Meteorologii i Gospodarki Wodnej – Państwowy Instytut Badawczy. Dane Instytutu Meteorologii i Gospodarki Wodnej – Państwowego Instytutu Badawczego zostały przetworzone.

Dane źródłowe można odnaleźć na stronie https://dane.imgw.pl